sensor_id;sensor_type;location;lat;lon;timestamp;P1;durP1;ratioP1;P2;durP2;ratioP2
67185;SDS011;54116;53.518;49.398;2023-03-04T00:02:03;8.45;;;3.40;;
67185;SDS011;54116;53.518;49.398;2023-03-04T00:04:29;8.23;;;3.40;;
67185;SDS011;54116;53.518;49.398;2023-03-04T00:06:55;8.07;;;3.15;;
67185;SDS011;54116;53.518;49.398;2023-03-04T00:09:21;9.63;;;4.20;;
67185;SDS011;54116;53.518;49.398;2023-03-04T00:11:47;8.52;;;3.28;;
67185;SDS011;54116;53.518;49.398;2023-03-04T00:14:14;8.32;;;3.90;;
67185;SDS011;54116;53.518;49.398;2023-03-04T00:16:39;9.60;;;4.10;;
67185;SDS011;54116;53.518;49.398;2023-03-04T00:19:05;11.05;;;3.72;;
67185;SDS011;54116;53.518;49.398;2023-03-04T00:21:31;8.55;;;3.45;;
67185;SDS011;54116;53.518;49.398;2023-03-04T00:23:57;7.47;;;3.45;;
67185;SDS011;54116;53.518;49.398;2023-03-04T00:26:23;8.70;;;3.28;;
67185;SDS011;54116;53.518;49.398;2023-03-04T00:28:49;9.40;;;3.42;;
67185;SDS011;54116;53.518;49.398;2023-03-04T00:31:15;9.68;;;3.70;;
67185;SDS011;54116;53.518;49.398;2023-03-04T00:33:41;11.55;;;3.47;;
67185;SDS011;54116;53.518;49.398;2023-03-04T00:36:09;7.85;;;3.30;;
67185;SDS011;54116;53.518;49.398;2023-03-04T00:38:35;10.50;;;3.75;;
67185;SDS011;54116;53.518;49.398;2023-03-04T00:41:01;8.35;;;3.25;;
67185;SDS011;54116;53.518;49.398;2023-03-04T00:43:28;8.10;;;3.13;;
67185;SDS011;54116;53.518;49.398;2023-03-04T00:45:54;8.68;;;3.47;;
67185;SDS011;54116;53.518;49.398;2023-03-04T00:48:20;9.27;;;3.53;;
67185;SDS011;54116;53.518;49.398;2023-03-04T00:50:46;9.77;;;3.42;;
67185;SDS011;54116;53.518;49.398;2023-03-04T00:53:13;10.52;;;3.65;;
67185;SDS011;54116;53.518;49.398;2023-03-04T00:55:39;8.48;;;3.33;;
67185;SDS011;54116;53.518;49.398;2023-03-04T00:58:05;9.02;;;3.35;;
67185;SDS011;54116;53.518;49.398;2023-03-04T01:00:31;9.35;;;3.78;;
67185;SDS011;54116;53.518;49.398;2023-03-04T01:02:58;10.27;;;3.70;;
67185;SDS011;54116;53.518;49.398;2023-03-04T01:05:24;8.85;;;3.50;;
67185;SDS011;54116;53.518;49.398;2023-03-04T01:07:50;10.95;;;3.75;;
67185;SDS011;54116;53.518;49.398;2023-03-04T01:10:16;10.23;;;3.58;;
67185;SDS011;54116;53.518;49.398;2023-03-04T01:12:50;8.40;;;3.53;;
67185;SDS011;54116;53.518;49.398;2023-03-04T01:15:16;11.18;;;4.07;;
67185;SDS011;54116;53.518;49.398;2023-03-04T01:17:43;9.80;;;3.63;;
67185;SDS011;54116;53.518;49.398;2023-03-04T01:20:10;8.85;;;3.53;;
67185;SDS011;54116;53.518;49.398;2023-03-04T01:22:37;10.02;;;3.58;;
67185;SDS011;54116;53.518;49.398;2023-03-04T01:25:03;7.88;;;3.55;;
67185;SDS011;54116;53.518;49.398;2023-03-04T01:27:30;8.75;;;3.78;;
67185;SDS011;54116;53.518;49.398;2023-03-04T01:29:56;9.85;;;3.70;;
67185;SDS011;54116;53.518;49.398;2023-03-04T01:32:22;7.78;;;3.20;;
67185;SDS011;54116;53.518;49.398;2023-03-04T01:34:48;7.57;;;3.17;;
67185;SDS011;54116;53.518;49.398;2023-03-04T01:37:14;8.50;;;3.30;;
67185;SDS011;54116;53.518;49.398;2023-03-04T01:39:40;7.45;;;3.20;;
67185;SDS011;54116;53.518;49.398;2023-03-04T01:42:08;9.73;;;4.05;;
67185;SDS011;54116;53.518;49.398;2023-03-04T01:44:47;8.57;;;3.22;;
67185;SDS011;54116;53.518;49.398;2023-03-04T01:47:14;8.38;;;3.08;;
67185;SDS011;54116;53.518;49.398;2023-03-04T01:49:41;8.65;;;2.90;;
67185;SDS011;54116;53.518;49.398;2023-03-04T01:52:11;10.30;;;3.47;;
67185;SDS011;54116;53.518;49.398;2023-03-04T01:54:38;10.40;;;3.67;;
67185;SDS011;54116;53.518;49.398;2023-03-04T01:57:06;11.07;;;3.65;;
67185;SDS011;54116;53.518;49.398;2023-03-04T01:59:41;11.35;;;3.30;;
67185;SDS011;54116;53.518;49.398;2023-03-04T02:02:07;8.32;;;3.13;;
67185;SDS011;54116;53.518;49.398;2023-03-04T02:04:33;12.55;;;3.35;;
67185;SDS011;54116;53.518;49.398;2023-03-04T02:07:00;10.10;;;3.42;;
67185;SDS011;54116;53.518;49.398;2023-03-04T02:09:28;8.38;;;3.55;;
67185;SDS011;54116;53.518;49.398;2023-03-04T02:11:55;9.18;;;3.58;;
67185;SDS011;54116;53.518;49.398;2023-03-04T02:14:22;9.07;;;3.28;;
67185;SDS011;54116;53.518;49.398;2023-03-04T02:21:52;7.90;;;3.13;;
67185;SDS011;54116;53.518;49.398;2023-03-04T02:24:22;8.05;;;2.95;;
67185;SDS011;54116;53.518;49.398;2023-03-04T02:27:00;8.07;;;3.40;;
67185;SDS011;54116;53.518;49.398;2023-03-04T02:29:26;9.00;;;3.30;;
67185;SDS011;54116;53.518;49.398;2023-03-04T02:31:53;9.55;;;3.17;;
67185;SDS011;54116;53.518;49.398;2023-03-04T02:34:20;8.93;;;3.25;;
67185;SDS011;54116;53.518;49.398;2023-03-04T02:36:49;9.00;;;3.28;;
67185;SDS011;54116;53.518;49.398;2023-03-04T02:41:51;8.40;;;3.42;;
67185;SDS011;54116;53.518;49.398;2023-03-04T02:44:25;7.93;;;3.72;;
67185;SDS011;54116;53.518;49.398;2023-03-04T02:46:56;9.63;;;3.05;;
67185;SDS011;54116;53.518;49.398;2023-03-04T02:49:24;9.52;;;3.70;;
67185;SDS011;54116;53.518;49.398;2023-03-04T02:51:56;10.75;;;3.97;;
67185;SDS011;54116;53.518;49.398;2023-03-04T02:54:26;9.18;;;3.25;;
67185;SDS011;54116;53.518;49.398;2023-03-04T02:59:22;6.70;;;2.83;;
67185;SDS011;54116;53.518;49.398;2023-03-04T03:02:03;8.35;;;3.05;;
67185;SDS011;54116;53.518;49.398;2023-03-04T03:04:29;8.43;;;3.22;;
67185;SDS011;54116;53.518;49.398;2023-03-04T03:06:55;9.32;;;3.70;;
67185;SDS011;54116;53.518;49.398;2023-03-04T03:09:21;8.88;;;3.67;;
67185;SDS011;54116;53.518;49.398;2023-03-04T03:11:48;9.25;;;3.65;;
67185;SDS011;54116;53.518;49.398;2023-03-04T03:14:14;10.05;;;3.58;;
67185;SDS011;54116;53.518;49.398;2023-03-04T03:16:41;12.10;;;3.72;;
67185;SDS011;54116;53.518;49.398;2023-03-04T03:19:07;8.90;;;3.47;;
67185;SDS011;54116;53.518;49.398;2023-03-04T03:21:33;9.90;;;3.53;;
67185;SDS011;54116;53.518;49.398;2023-03-04T03:24:00;10.93;;;3.88;;
67185;SDS011;54116;53.518;49.398;2023-03-04T03:26:26;12.15;;;4.28;;
67185;SDS011;54116;53.518;49.398;2023-03-04T03:28:51;10.00;;;3.47;;
67185;SDS011;54116;53.518;49.398;2023-03-04T03:31:17;10.18;;;3.90;;
67185;SDS011;54116;53.518;49.398;2023-03-04T03:36:10;10.57;;;3.75;;
67185;SDS011;54116;53.518;49.398;2023-03-04T03:38:42;12.45;;;3.35;;
67185;SDS011;54116;53.518;49.398;2023-03-04T03:41:08;12.48;;;4.63;;
67185;SDS011;54116;53.518;49.398;2023-03-04T03:43:34;12.52;;;4.60;;
67185;SDS011;54116;53.518;49.398;2023-03-04T03:46:00;12.63;;;4.15;;
67185;SDS011;54116;53.518;49.398;2023-03-04T03:48:26;10.63;;;3.70;;
67185;SDS011;54116;53.518;49.398;2023-03-04T03:50:52;12.45;;;4.15;;
67185;SDS011;54116;53.518;49.398;2023-03-04T03:53:19;14.05;;;4.38;;
67185;SDS011;54116;53.518;49.398;2023-03-04T03:55:45;9.70;;;3.40;;
67185;SDS011;54116;53.518;49.398;2023-03-04T03:58:11;15.18;;;4.20;;
67185;SDS011;54116;53.518;49.398;2023-03-04T04:00:37;13.05;;;4.38;;
67185;SDS011;54116;53.518;49.398;2023-03-04T04:03:03;10.80;;;4.22;;
67185;SDS011;54116;53.518;49.398;2023-03-04T04:05:29;13.00;;;3.65;;
67185;SDS011;54116;53.518;49.398;2023-03-04T04:07:55;12.15;;;4.15;;
67185;SDS011;54116;53.518;49.398;2023-03-04T04:10:21;12.02;;;4.43;;
67185;SDS011;54116;53.518;49.398;2023-03-04T04:12:47;12.48;;;4.03;;
67185;SDS011;54116;53.518;49.398;2023-03-04T04:15:13;12.65;;;3.65;;
67185;SDS011;54116;53.518;49.398;2023-03-04T04:17:39;10.85;;;3.92;;
67185;SDS011;54116;53.518;49.398;2023-03-04T04:20:06;11.88;;;3.90;;
67185;SDS011;54116;53.518;49.398;2023-03-04T04:22:33;10.82;;;3.60;;
67185;SDS011;54116;53.518;49.398;2023-03-04T04:24:59;12.18;;;4.03;;
67185;SDS011;54116;53.518;49.398;2023-03-04T04:27:25;13.45;;;3.83;;
67185;SDS011;54116;53.518;49.398;2023-03-04T04:29:51;11.55;;;4.00;;
67185;SDS011;54116;53.518;49.398;2023-03-04T04:32:17;13.55;;;5.13;;
67185;SDS011;54116;53.518;49.398;2023-03-04T04:34:43;10.25;;;3.33;;
67185;SDS011;54116;53.518;49.398;2023-03-04T04:37:09;10.85;;;3.35;;
67185;SDS011;54116;53.518;49.398;2023-03-04T04:39:35;14.13;;;4.40;;
67185;SDS011;54116;53.518;49.398;2023-03-04T04:42:01;11.13;;;3.97;;
67185;SDS011;54116;53.518;49.398;2023-03-04T04:44:27;15.57;;;4.07;;
67185;SDS011;54116;53.518;49.398;2023-03-04T04:46:59;13.90;;;4.07;;
67185;SDS011;54116;53.518;49.398;2023-03-04T04:49:25;14.63;;;4.30;;
67185;SDS011;54116;53.518;49.398;2023-03-04T04:51:51;11.73;;;3.85;;
67185;SDS011;54116;53.518;49.398;2023-03-04T04:54:17;11.63;;;3.67;;
67185;SDS011;54116;53.518;49.398;2023-03-04T04:56:44;11.60;;;3.75;;
67185;SDS011;54116;53.518;49.398;2023-03-04T04:59:10;11.25;;;4.07;;
67185;SDS011;54116;53.518;49.398;2023-03-04T05:01:36;13.20;;;4.65;;
67185;SDS011;54116;53.518;49.398;2023-03-04T05:04:02;11.57;;;4.45;;
67185;SDS011;54116;53.518;49.398;2023-03-04T05:06:28;10.18;;;3.53;;
67185;SDS011;54116;53.518;49.398;2023-03-04T05:08:54;13.73;;;4.05;;
67185;SDS011;54116;53.518;49.398;2023-03-04T05:11:20;11.15;;;3.60;;
67185;SDS011;54116;53.518;49.398;2023-03-04T05:13:47;11.43;;;4.47;;
67185;SDS011;54116;53.518;49.398;2023-03-04T05:16:15;12.45;;;4.15;;
67185;SDS011;54116;53.518;49.398;2023-03-04T05:18:41;13.48;;;4.13;;
67185;SDS011;54116;53.518;49.398;2023-03-04T05:21:09;14.68;;;4.40;;
67185;SDS011;54116;53.518;49.398;2023-03-04T05:23:36;13.27;;;4.35;;
67185;SDS011;54116;53.518;49.398;2023-03-04T05:26:07;13.50;;;4.38;;
67185;SDS011;54116;53.518;49.398;2023-03-04T05:28:35;10.25;;;3.83;;
67185;SDS011;54116;53.518;49.398;2023-03-04T05:31:02;12.75;;;4.55;;
67185;SDS011;54116;53.518;49.398;2023-03-04T05:33:29;13.38;;;4.45;;
67185;SDS011;54116;53.518;49.398;2023-03-04T05:35:56;12.65;;;4.30;;
67185;SDS011;54116;53.518;49.398;2023-03-04T05:38:22;13.65;;;4.35;;
67185;SDS011;54116;53.518;49.398;2023-03-04T05:40:54;10.90;;;3.50;;
67185;SDS011;54116;53.518;49.398;2023-03-04T05:43:22;11.77;;;3.83;;
67185;SDS011;54116;53.518;49.398;2023-03-04T05:45:48;12.23;;;3.85;;
67185;SDS011;54116;53.518;49.398;2023-03-04T05:48:15;12.73;;;4.10;;
67185;SDS011;54116;53.518;49.398;2023-03-04T05:50:41;12.73;;;3.53;;
67185;SDS011;54116;53.518;49.398;2023-03-04T05:53:07;13.15;;;4.05;;
67185;SDS011;54116;53.518;49.398;2023-03-04T05:55:33;9.38;;;3.17;;
67185;SDS011;54116;53.518;49.398;2023-03-04T05:57:59;9.43;;;3.60;;
67185;SDS011;54116;53.518;49.398;2023-03-04T06:00:25;10.60;;;4.25;;
67185;SDS011;54116;53.518;49.398;2023-03-04T06:02:51;11.45;;;4.28;;
67185;SDS011;54116;53.518;49.398;2023-03-04T06:05:18;11.00;;;4.00;;
67185;SDS011;54116;53.518;49.398;2023-03-04T06:07:44;10.25;;;3.58;;
67185;SDS011;54116;53.518;49.398;2023-03-04T06:10:12;11.82;;;3.78;;
67185;SDS011;54116;53.518;49.398;2023-03-04T06:12:40;9.32;;;3.35;;
67185;SDS011;54116;53.518;49.398;2023-03-04T06:15:06;10.05;;;3.25;;
67185;SDS011;54116;53.518;49.398;2023-03-04T06:17:37;10.57;;;3.58;;
67185;SDS011;54116;53.518;49.398;2023-03-04T06:20:04;12.18;;;4.20;;
67185;SDS011;54116;53.518;49.398;2023-03-04T06:22:32;10.32;;;3.85;;
67185;SDS011;54116;53.518;49.398;2023-03-04T06:24:59;9.70;;;3.63;;
67185;SDS011;54116;53.518;49.398;2023-03-04T06:27:25;13.70;;;4.20;;
67185;SDS011;54116;53.518;49.398;2023-03-04T06:29:52;9.52;;;4.28;;
67185;SDS011;54116;53.518;49.398;2023-03-04T06:34:44;11.38;;;3.83;;
67185;SDS011;54116;53.518;49.398;2023-03-04T06:37:10;12.60;;;4.18;;
67185;SDS011;54116;53.518;49.398;2023-03-04T06:39:36;11.95;;;3.63;;
67185;SDS011;54116;53.518;49.398;2023-03-04T06:42:02;13.30;;;4.40;;
67185;SDS011;54116;53.518;49.398;2023-03-04T06:46:54;11.82;;;4.35;;
67185;SDS011;54116;53.518;49.398;2023-03-04T06:49:20;12.23;;;4.75;;
67185;SDS011;54116;53.518;49.398;2023-03-04T06:51:46;11.98;;;4.45;;
67185;SDS011;54116;53.518;49.398;2023-03-04T06:54:12;12.63;;;4.47;;
67185;SDS011;54116;53.518;49.398;2023-03-04T06:56:38;13.82;;;4.53;;
67185;SDS011;54116;53.518;49.398;2023-03-04T06:59:04;10.90;;;4.25;;
67185;SDS011;54116;53.518;49.398;2023-03-04T07:01:30;13.38;;;5.57;;
67185;SDS011;54116;53.518;49.398;2023-03-04T07:03:56;11.45;;;4.32;;
67185;SDS011;54116;53.518;49.398;2023-03-04T07:06:24;11.90;;;4.97;;
67185;SDS011;54116;53.518;49.398;2023-03-04T07:08:51;11.65;;;4.47;;
67185;SDS011;54116;53.518;49.398;2023-03-04T07:13:43;12.07;;;4.25;;
67185;SDS011;54116;53.518;49.398;2023-03-04T07:16:10;11.40;;;3.97;;
67185;SDS011;54116;53.518;49.398;2023-03-04T07:18:38;12.43;;;4.65;;
67185;SDS011;54116;53.518;49.398;2023-03-04T07:21:06;11.30;;;4.88;;
67185;SDS011;54116;53.518;49.398;2023-03-04T07:23:35;12.98;;;4.47;;
67185;SDS011;54116;53.518;49.398;2023-03-04T07:26:01;13.23;;;5.38;;
67185;SDS011;54116;53.518;49.398;2023-03-04T07:28:28;11.23;;;4.55;;
67185;SDS011;54116;53.518;49.398;2023-03-04T07:30:54;11.38;;;5.25;;
67185;SDS011;54116;53.518;49.398;2023-03-04T07:33:20;13.23;;;6.25;;
67185;SDS011;54116;53.518;49.398;2023-03-04T07:35:46;10.57;;;5.00;;
67185;SDS011;54116;53.518;49.398;2023-03-04T07:38:12;10.10;;;3.72;;
67185;SDS011;54116;53.518;49.398;2023-03-04T07:40:38;11.48;;;4.97;;
67185;SDS011;54116;53.518;49.398;2023-03-04T07:43:04;24.35;;;9.00;;
67185;SDS011;54116;53.518;49.398;2023-03-04T07:45:30;12.27;;;4.82;;
67185;SDS011;54116;53.518;49.398;2023-03-04T07:47:56;11.65;;;3.92;;
67185;SDS011;54116;53.518;49.398;2023-03-04T07:50:23;11.43;;;5.13;;
67185;SDS011;54116;53.518;49.398;2023-03-04T07:52:49;15.80;;;6.45;;
67185;SDS011;54116;53.518;49.398;2023-03-04T07:55:15;13.73;;;4.80;;
67185;SDS011;54116;53.518;49.398;2023-03-04T07:57:43;12.52;;;7.45;;
67185;SDS011;54116;53.518;49.398;2023-03-04T08:00:11;18.10;;;8.60;;
67185;SDS011;54116;53.518;49.398;2023-03-04T08:02:39;13.60;;;6.25;;
67185;SDS011;54116;53.518;49.398;2023-03-04T08:05:06;12.38;;;5.47;;
67185;SDS011;54116;53.518;49.398;2023-03-04T08:07:32;11.38;;;5.20;;
67185;SDS011;54116;53.518;49.398;2023-03-04T08:09:58;10.05;;;4.70;;
67185;SDS011;54116;53.518;49.398;2023-03-04T08:12:24;11.82;;;4.28;;
67185;SDS011;54116;53.518;49.398;2023-03-04T08:14:52;13.05;;;6.30;;
67185;SDS011;54116;53.518;49.398;2023-03-04T08:17:18;15.85;;;6.68;;
67185;SDS011;54116;53.518;49.398;2023-03-04T08:19:45;13.88;;;6.40;;
67185;SDS011;54116;53.518;49.398;2023-03-04T08:24:37;10.80;;;4.80;;
67185;SDS011;54116;53.518;49.398;2023-03-04T08:29:30;8.38;;;4.72;;
67185;SDS011;54116;53.518;49.398;2023-03-04T08:31:56;8.45;;;3.83;;
67185;SDS011;54116;53.518;49.398;2023-03-04T08:34:23;8.40;;;3.78;;
67185;SDS011;54116;53.518;49.398;2023-03-04T08:36:52;7.57;;;3.35;;
67185;SDS011;54116;53.518;49.398;2023-03-04T08:39:19;9.35;;;4.35;;
67185;SDS011;54116;53.518;49.398;2023-03-04T08:44:12;10.02;;;4.45;;
67185;SDS011;54116;53.518;49.398;2023-03-04T08:46:39;10.35;;;5.07;;
67185;SDS011;54116;53.518;49.398;2023-03-04T08:49:07;11.15;;;5.15;;
67185;SDS011;54116;53.518;49.398;2023-03-04T08:51:33;11.55;;;4.90;;
67185;SDS011;54116;53.518;49.398;2023-03-04T08:54:00;9.85;;;4.40;;
67185;SDS011;54116;53.518;49.398;2023-03-04T08:56:27;10.73;;;4.57;;
67185;SDS011;54116;53.518;49.398;2023-03-04T08:58:53;8.63;;;4.22;;
67185;SDS011;54116;53.518;49.398;2023-03-04T09:01:19;7.82;;;3.72;;
67185;SDS011;54116;53.518;49.398;2023-03-04T09:06:13;7.82;;;3.45;;
67185;SDS011;54116;53.518;49.398;2023-03-04T09:08:40;6.55;;;3.30;;
67185;SDS011;54116;53.518;49.398;2023-03-04T09:11:07;6.97;;;3.15;;
67185;SDS011;54116;53.518;49.398;2023-03-04T09:13:33;7.75;;;3.60;;
67185;SDS011;54116;53.518;49.398;2023-03-04T09:15:59;10.23;;;4.32;;
67185;SDS011;54116;53.518;49.398;2023-03-04T09:18:26;9.10;;;4.00;;
67185;SDS011;54116;53.518;49.398;2023-03-04T09:20:52;9.55;;;4.22;;
67185;SDS011;54116;53.518;49.398;2023-03-04T09:23:19;8.32;;;3.60;;
67185;SDS011;54116;53.518;49.398;2023-03-04T09:25:45;10.32;;;4.57;;
67185;SDS011;54116;53.518;49.398;2023-03-04T09:28:12;9.77;;;4.05;;
67185;SDS011;54116;53.518;49.398;2023-03-04T09:30:39;9.02;;;4.13;;
67185;SDS011;54116;53.518;49.398;2023-03-04T09:35:31;7.53;;;3.97;;
67185;SDS011;54116;53.518;49.398;2023-03-04T09:37:58;8.30;;;3.75;;
67185;SDS011;54116;53.518;49.398;2023-03-04T09:40:43;7.43;;;3.38;;
67185;SDS011;54116;53.518;49.398;2023-03-04T09:43:14;8.63;;;3.42;;
67185;SDS011;54116;53.518;49.398;2023-03-04T09:45:51;7.60;;;3.97;;
67185;SDS011;54116;53.518;49.398;2023-03-04T09:48:20;8.63;;;4.25;;
67185;SDS011;54116;53.518;49.398;2023-03-04T09:56:27;8.45;;;3.60;;
67185;SDS011;54116;53.518;49.398;2023-03-04T10:01:57;8.20;;;3.80;;
67185;SDS011;54116;53.518;49.398;2023-03-04T10:06:59;10.48;;;4.47;;
67185;SDS011;54116;53.518;49.398;2023-03-04T10:12:14;8.32;;;4.45;;
67185;SDS011;54116;53.518;49.398;2023-03-04T10:14:57;8.73;;;3.88;;
67185;SDS011;54116;53.518;49.398;2023-03-04T10:17:35;9.15;;;4.65;;
67185;SDS011;54116;53.518;49.398;2023-03-04T10:20:04;9.90;;;4.68;;
67185;SDS011;54116;53.518;49.398;2023-03-04T10:25:20;7.45;;;3.15;;
67185;SDS011;54116;53.518;49.398;2023-03-04T10:28:14;9.63;;;4.35;;
67185;SDS011;54116;53.518;49.398;2023-03-04T10:33:20;8.05;;;3.83;;
67185;SDS011;54116;53.518;49.398;2023-03-04T10:36:34;6.90;;;4.03;;
67185;SDS011;54116;53.518;49.398;2023-03-04T10:38:41;8.43;;;3.63;;
67185;SDS011;54116;53.518;49.398;2023-03-04T10:43:40;9.88;;;4.28;;
67185;SDS011;54116;53.518;49.398;2023-03-04T10:46:10;8.45;;;4.03;;
67185;SDS011;54116;53.518;49.398;2023-03-04T10:48:37;8.73;;;3.80;;
67185;SDS011;54116;53.518;49.398;2023-03-04T10:51:17;7.60;;;3.55;;
67185;SDS011;54116;53.518;49.398;2023-03-04T11:02:16;6.20;;;3.58;;
67185;SDS011;54116;53.518;49.398;2023-03-04T11:07:49;7.88;;;3.38;;
67185;SDS011;54116;53.518;49.398;2023-03-04T11:10:21;9.63;;;4.78;;
67185;SDS011;54116;53.518;49.398;2023-03-04T11:12:50;6.28;;;3.20;;
67185;SDS011;54116;53.518;49.398;2023-03-04T11:15:23;6.65;;;3.17;;
67185;SDS011;54116;53.518;49.398;2023-03-04T11:17:54;7.43;;;3.55;;
67185;SDS011;54116;53.518;49.398;2023-03-04T11:20:33;7.70;;;3.50;;
67185;SDS011;54116;53.518;49.398;2023-03-04T11:23:13;6.90;;;4.00;;
67185;SDS011;54116;53.518;49.398;2023-03-04T11:25:54;6.50;;;2.92;;
67185;SDS011;54116;53.518;49.398;2023-03-04T11:28:28;7.38;;;3.50;;
67185;SDS011;54116;53.518;49.398;2023-03-04T11:31:11;6.82;;;3.33;;
67185;SDS011;54116;53.518;49.398;2023-03-04T11:36:35;8.07;;;3.97;;
67185;SDS011;54116;53.518;49.398;2023-03-04T11:39:17;9.63;;;4.32;;
67185;SDS011;54116;53.518;49.398;2023-03-04T11:41:59;9.02;;;4.43;;
67185;SDS011;54116;53.518;49.398;2023-03-04T11:44:30;9.82;;;4.85;;
67185;SDS011;54116;53.518;49.398;2023-03-04T11:47:42;9.32;;;4.63;;
67185;SDS011;54116;53.518;49.398;2023-03-04T11:49:52;11.48;;;5.18;;
67185;SDS011;54116;53.518;49.398;2023-03-04T11:58:52;9.20;;;4.75;;
67185;SDS011;54116;53.518;49.398;2023-03-04T12:13:05;11.32;;;4.93;;
67185;SDS011;54116;53.518;49.398;2023-03-04T12:29:47;10.63;;;5.25;;
67185;SDS011;54116;53.518;49.398;2023-03-04T12:32:20;13.68;;;6.18;;
67185;SDS011;54116;53.518;49.398;2023-03-04T12:35:18;16.33;;;6.50;;
67185;SDS011;54116;53.518;49.398;2023-03-04T12:55:00;9.75;;;5.03;;
67185;SDS011;54116;53.518;49.398;2023-03-04T12:57:28;10.20;;;4.63;;
67185;SDS011;54116;53.518;49.398;2023-03-04T13:02:55;11.38;;;5.55;;
67185;SDS011;54116;53.518;49.398;2023-03-04T13:09:36;10.55;;;5.25;;
67185;SDS011;54116;53.518;49.398;2023-03-04T13:16:51;9.43;;;5.20;;
67185;SDS011;54116;53.518;49.398;2023-03-04T13:38:30;12.50;;;6.93;;
67185;SDS011;54116;53.518;49.398;2023-03-04T13:54:13;13.90;;;7.00;;
67185;SDS011;54116;53.518;49.398;2023-03-04T13:56:45;13.75;;;6.35;;
67185;SDS011;54116;53.518;49.398;2023-03-04T13:59:23;11.02;;;6.05;;
67185;SDS011;54116;53.518;49.398;2023-03-04T14:01:57;13.65;;;6.15;;
67185;SDS011;54116;53.518;49.398;2023-03-04T14:04:35;11.00;;;5.57;;
67185;SDS011;54116;53.518;49.398;2023-03-04T14:07:15;13.20;;;5.95;;
67185;SDS011;54116;53.518;49.398;2023-03-04T14:10:17;11.60;;;5.40;;
67185;SDS011;54116;53.518;49.398;2023-03-04T14:12:51;12.10;;;5.97;;
67185;SDS011;54116;53.518;49.398;2023-03-04T14:15:21;12.75;;;6.07;;
67185;SDS011;54116;53.518;49.398;2023-03-04T14:17:53;14.68;;;6.18;;
67185;SDS011;54116;53.518;49.398;2023-03-04T14:22:56;11.60;;;5.75;;
67185;SDS011;54116;53.518;49.398;2023-03-04T14:25:24;16.30;;;6.40;;
67185;SDS011;54116;53.518;49.398;2023-03-04T14:30:36;14.00;;;6.07;;
67185;SDS011;54116;53.518;49.398;2023-03-04T14:33:05;14.77;;;7.18;;
67185;SDS011;54116;53.518;49.398;2023-03-04T14:35:33;12.40;;;6.32;;
67185;SDS011;54116;53.518;49.398;2023-03-04T14:38:07;13.35;;;6.47;;
67185;SDS011;54116;53.518;49.398;2023-03-04T14:41:03;14.10;;;6.55;;
67185;SDS011;54116;53.518;49.398;2023-03-04T14:43:34;13.98;;;6.05;;
67185;SDS011;54116;53.518;49.398;2023-03-04T14:46:11;15.48;;;6.68;;
67185;SDS011;54116;53.518;49.398;2023-03-04T14:48:44;13.40;;;6.72;;
67185;SDS011;54116;53.518;49.398;2023-03-04T14:51:59;13.15;;;6.07;;
67185;SDS011;54116;53.518;49.398;2023-03-04T14:57:25;14.77;;;6.13;;
67185;SDS011;54116;53.518;49.398;2023-03-04T15:00:06;15.10;;;6.68;;
67185;SDS011;54116;53.518;49.398;2023-03-04T15:02:46;14.40;;;5.97;;
67185;SDS011;54116;53.518;49.398;2023-03-04T15:05:20;14.15;;;6.63;;
67185;SDS011;54116;53.518;49.398;2023-03-04T15:07:54;14.93;;;7.10;;
67185;SDS011;54116;53.518;49.398;2023-03-04T15:10:30;14.07;;;6.88;;
67185;SDS011;54116;53.518;49.398;2023-03-04T15:13:01;15.43;;;7.30;;
67185;SDS011;54116;53.518;49.398;2023-03-04T15:15:42;15.70;;;7.82;;
67185;SDS011;54116;53.518;49.398;2023-03-04T15:20:53;15.20;;;7.43;;
67185;SDS011;54116;53.518;49.398;2023-03-04T15:23:22;14.35;;;6.65;;
67185;SDS011;54116;53.518;49.398;2023-03-04T15:25:52;14.85;;;6.68;;
67185;SDS011;54116;53.518;49.398;2023-03-04T15:28:20;20.25;;;7.70;;
67185;SDS011;54116;53.518;49.398;2023-03-04T15:30:47;12.07;;;6.55;;
67185;SDS011;54116;53.518;49.398;2023-03-04T15:33:14;12.43;;;6.20;;
67185;SDS011;54116;53.518;49.398;2023-03-04T15:35:40;14.35;;;6.65;;
67185;SDS011;54116;53.518;49.398;2023-03-04T15:38:18;14.30;;;6.57;;
67185;SDS011;54116;53.518;49.398;2023-03-04T15:40:45;13.65;;;6.55;;
67185;SDS011;54116;53.518;49.398;2023-03-04T15:43:15;13.85;;;6.50;;
67185;SDS011;54116;53.518;49.398;2023-03-04T15:45:43;13.70;;;6.30;;
67185;SDS011;54116;53.518;49.398;2023-03-04T15:48:11;14.75;;;6.93;;
67185;SDS011;54116;53.518;49.398;2023-03-04T15:50:44;17.33;;;6.35;;
67185;SDS011;54116;53.518;49.398;2023-03-04T15:53:18;13.43;;;6.20;;
67185;SDS011;54116;53.518;49.398;2023-03-04T15:55:52;12.88;;;7.22;;
67185;SDS011;54116;53.518;49.398;2023-03-04T15:58:18;12.40;;;5.85;;
67185;SDS011;54116;53.518;49.398;2023-03-04T16:00:44;11.98;;;5.57;;
67185;SDS011;54116;53.518;49.398;2023-03-04T16:03:12;12.30;;;5.65;;
67185;SDS011;54116;53.518;49.398;2023-03-04T16:05:43;13.00;;;5.93;;
67185;SDS011;54116;53.518;49.398;2023-03-04T16:08:13;13.82;;;6.07;;
67185;SDS011;54116;53.518;49.398;2023-03-04T16:10:41;15.02;;;6.60;;
67185;SDS011;54116;53.518;49.398;2023-03-04T16:13:15;12.45;;;5.93;;
67185;SDS011;54116;53.518;49.398;2023-03-04T16:15:43;15.00;;;6.50;;
67185;SDS011;54116;53.518;49.398;2023-03-04T16:18:10;12.77;;;6.22;;
67185;SDS011;54116;53.518;49.398;2023-03-04T16:20:38;13.43;;;5.90;;
67185;SDS011;54116;53.518;49.398;2023-03-04T16:23:08;13.10;;;6.13;;
67185;SDS011;54116;53.518;49.398;2023-03-04T16:25:37;12.00;;;6.60;;
67185;SDS011;54116;53.518;49.398;2023-03-04T16:28:03;12.98;;;6.03;;
67185;SDS011;54116;53.518;49.398;2023-03-04T16:30:31;14.68;;;6.63;;
67185;SDS011;54116;53.518;49.398;2023-03-04T16:32:57;14.18;;;6.10;;
67185;SDS011;54116;53.518;49.398;2023-03-04T16:35:23;14.20;;;6.25;;
67185;SDS011;54116;53.518;49.398;2023-03-04T16:37:53;13.45;;;6.53;;
67185;SDS011;54116;53.518;49.398;2023-03-04T16:42:48;14.90;;;6.18;;
67185;SDS011;54116;53.518;49.398;2023-03-04T16:45:16;13.38;;;6.65;;
67185;SDS011;54116;53.518;49.398;2023-03-04T16:47:47;14.23;;;5.95;;
67185;SDS011;54116;53.518;49.398;2023-03-04T16:52:41;13.95;;;6.63;;
67185;SDS011;54116;53.518;49.398;2023-03-04T16:55:14;13.07;;;6.63;;
67185;SDS011;54116;53.518;49.398;2023-03-04T16:57:45;14.57;;;6.72;;
67185;SDS011;54116;53.518;49.398;2023-03-04T17:00:11;13.30;;;6.53;;
67185;SDS011;54116;53.518;49.398;2023-03-04T17:02:38;13.00;;;6.13;;
67185;SDS011;54116;53.518;49.398;2023-03-04T17:05:05;12.80;;;5.85;;
67185;SDS011;54116;53.518;49.398;2023-03-04T17:07:32;15.98;;;6.38;;
67185;SDS011;54116;53.518;49.398;2023-03-04T17:09:58;13.02;;;6.25;;
67185;SDS011;54116;53.518;49.398;2023-03-04T17:12:24;14.20;;;6.60;;
67185;SDS011;54116;53.518;49.398;2023-03-04T17:14:50;15.38;;;6.97;;
67185;SDS011;54116;53.518;49.398;2023-03-04T17:17:16;13.23;;;7.00;;
67185;SDS011;54116;53.518;49.398;2023-03-04T17:19:42;13.50;;;5.93;;
67185;SDS011;54116;53.518;49.398;2023-03-04T17:22:08;14.70;;;6.60;;
67185;SDS011;54116;53.518;49.398;2023-03-04T17:24:35;13.35;;;6.40;;
67185;SDS011;54116;53.518;49.398;2023-03-04T17:27:02;13.98;;;6.55;;
67185;SDS011;54116;53.518;49.398;2023-03-04T17:29:28;14.55;;;6.80;;
67185;SDS011;54116;53.518;49.398;2023-03-04T17:31:54;15.07;;;7.18;;
67185;SDS011;54116;53.518;49.398;2023-03-04T17:34:21;12.57;;;5.93;;